Home > Products > Valid Products > TAF

000
FTUS45 KBYZ 012325
TAFBIL
TAF
KBIL 012325Z 0200/0224 29020G30KT P6SM SCT100 BKN150
     FM020200 28015KT P6SM SCT100 BKN200
     FM021600 31017G25KT P6SM BKN080
     FM022200 34015KT P6SM BKN100=



000
FTUS45 KBYZ 012325
TAFLVM
TAF
KLVM 012325Z 0200/0224 25022G32KT P6SM VCSH SCT100 BKN120
     FM020300 27015KT P6SM BKN080
     FM021500 28016KT P6SM VCSH BKN060=



000
FTUS45 KBYZ 012325
TAFMLS
TAF
KMLS 012325Z 0200/0224 29026G36KT P6SM FEW100 SCT150
     FM020200 28012G20KT P6SM SCT100
     FM021500 31022G32KT P6SM BKN060=



000
FTUS45 KBYZ 012325
TAFSHR
TAF
KSHR 012325Z 0200/0224 31014G24KT P6SM BKN100
     FM020200 29010KT P6SM SCT100 BKN150
     FM021500 32018G26KT P6SM SCT060 BKN080=



000
FTUS45 KBYZ 012325
TAFLVM
TAF
KLVM 012325Z 0200/0224 25022G32KT P6SM VCSH SCT100 BKN120
     FM020300 27015KT P6SM BKN080
     FM021500 28016KT P6SM VCSH BKN060=



000
FTUS45 KBYZ 012325
TAFMLS
TAF
KMLS 012325Z 0200/0224 29026G36KT P6SM FEW100 SCT150
     FM020200 28012G20KT P6SM SCT100
     FM021500 31022G32KT P6SM BKN060=



000
FTUS45 KBYZ 011729
TAFLVM
TAF
KLVM 011729Z 0118/0218 26025G35KT P6SM SCT100 BKN150
     FM012000 27023G33KT P6SM VCSH SCT080 BKN100
     FM020300 27015KT P6SM BKN080
     FM021500 28016KT P6SM VCSH BKN050=



000
FTUS45 KBYZ 011729
TAFSHR
TAF
KSHR 011729Z 0118/0218 31020G29KT P6SM FEW080 BKN120
     FM020200 29011KT P6SM SCT100 BKN150
     FM021500 32016G23KT P6SM SCT050 BKN080=



000
FTUS45 KBYZ 011729
TAFBIL
TAF
KBIL 011729Z 0118/0218 29023G32KT P6SM FEW090 BKN150
     FM020200 28016KT P6SM SCT090 BKN200
     FM021600 31017G25KT P6SM BKN060=



000
FTUS45 KBYZ 011729
TAFMLS
TAF
KMLS 011729Z 0118/0218 30026G36KT P6SM FEW090 SCT150
     FM020200 28015G22KT P6SM SCT100
     FM021500 31024G34KT P6SM BKN050=



000
FTUS45 KBYZ 011729
TAFBIL
TAF
KBIL 011729Z 0118/0218 29023G32KT P6SM FEW090 BKN150
     FM020200 28016KT P6SM SCT090 BKN200
     FM021600 31017G25KT P6SM BKN060=



000
FTUS45 KBYZ 011729
TAFSHR
TAF
KSHR 011729Z 0118/0218 31020G29KT P6SM FEW080 BKN120
     FM020200 29011KT P6SM SCT100 BKN150
     FM021500 32016G23KT P6SM SCT050 BKN080=



000
FTUS45 KBYZ 011729
TAFMLS
TAF
KMLS 011729Z 0118/0218 30026G36KT P6SM FEW090 SCT150
     FM020200 28015G22KT P6SM SCT100
     FM021500 31024G34KT P6SM BKN050=



000
FTUS45 KBYZ 011729
TAFLVM
TAF
KLVM 011729Z 0118/0218 26025G35KT P6SM SCT100 BKN150
     FM012000 27023G33KT P6SM VCSH SCT080 BKN100
     FM020300 27015KT P6SM BKN080
     FM021500 28016KT P6SM VCSH BKN050=



000
FTUS45 KBYZ 011729
TAFSHR
TAF
KSHR 011729Z 0118/0218 31020G29KT P6SM FEW080 BKN120
     FM020200 29011KT P6SM SCT100 BKN150
     FM021500 32016G23KT P6SM SCT050 BKN080=



000
FTUS45 KBYZ 011729
TAFLVM
TAF
KLVM 011729Z 0118/0218 26025G35KT P6SM SCT100 BKN150
     FM012000 27023G33KT P6SM VCSH SCT080 BKN100
     FM020300 27015KT P6SM BKN080
     FM021500 28016KT P6SM VCSH BKN050=



000
FTUS45 KBYZ 011729
TAFMLS
TAF
KMLS 011729Z 0118/0218 30026G36KT P6SM FEW090 SCT150
     FM020200 28015G22KT P6SM SCT100
     FM021500 31024G34KT P6SM BKN050=



000
FTUS45 KBYZ 011729
TAFBIL
TAF
KBIL 011729Z 0118/0218 29023G32KT P6SM FEW090 BKN150
     FM020200 28016KT P6SM SCT090 BKN200
     FM021600 31017G25KT P6SM BKN060=



000
FTUS45 KBYZ 011419 AAA
TAFBIL
TAF AMD
KBIL 011419Z 0114/0212 28018KT P6SM SCT060 BKN090
     FM011600 29025G35KT P6SM FEW090 BKN150
     FM020200 29015KT P6SM SCT120 BKN200=



000
FTUS45 KBYZ 011419 AAA
TAFBIL
TAF AMD
KBIL 011419Z 0114/0212 28018KT P6SM SCT060 BKN090
     FM011600 29025G35KT P6SM FEW090 BKN150
     FM020200 29015KT P6SM SCT120 BKN200=



000
FTUS45 KBYZ 011135
TAFLVM
TAF
KLVM 011135Z 0112/0212 29018G28KT P6SM BKN080
     FM011600 27022G32KT P6SM SCT100
     FM020200 27015KT P6SM BKN080=



000
FTUS45 KBYZ 011135
TAFSHR
TAF
KSHR 011135Z 0112/0212 32015G25KT P6SM VCSH FEW030 BKN050
     FM011600 35024G33KT P6SM SCT080 BKN150
     FM020200 30012KT P6SM SCT080 BKN150=



000
FTUS45 KBYZ 011135
TAFBIL
TAF
KBIL 011135Z 0112/0212 28020G30KT P6SM BKN070
     FM011600 30026G40KT P6SM SCT150
     FM020200 29015KT P6SM SCT120 BKN200=



000
FTUS45 KBYZ 011135
TAFMLS
TAF
KMLS 011135Z 0112/0212 30020G30KT P6SM BKN080
     FM011600 29025G35KT P6SM SCT080
     FM020200 28014KT P6SM SCT080=



000
FTUS45 KBYZ 011135
TAFLVM
TAF
KLVM 011135Z 0112/0212 29018G28KT P6SM BKN080
     FM011600 27022G32KT P6SM SCT100
     FM020200 27015KT P6SM BKN080=



000
FTUS45 KBYZ 011135
TAFMLS
TAF
KMLS 011135Z 0112/0212 30020G30KT P6SM BKN080
     FM011600 29025G35KT P6SM SCT080
     FM020200 28014KT P6SM SCT080=



000
FTUS45 KBYZ 011135
TAFSHR
TAF
KSHR 011135Z 0112/0212 32015G25KT P6SM VCSH FEW030 BKN050
     FM011600 35024G33KT P6SM SCT080 BKN150
     FM020200 30012KT P6SM SCT080 BKN150=



000
FTUS45 KBYZ 011135
TAFBIL
TAF
KBIL 011135Z 0112/0212 28020G30KT P6SM BKN070
     FM011600 30026G40KT P6SM SCT150
     FM020200 29015KT P6SM SCT120 BKN200=



000
FTUS45 KBYZ 011135
TAFSHR
TAF
KSHR 011135Z 0112/0212 32015G25KT P6SM VCSH FEW030 BKN050
     FM011600 35024G33KT P6SM SCT080 BKN150
     FM020200 30012KT P6SM SCT080 BKN150=



000
FTUS45 KBYZ 011135
TAFBIL
TAF
KBIL 011135Z 0112/0212 28020G30KT P6SM BKN070
     FM011600 30026G40KT P6SM SCT150
     FM020200 29015KT P6SM SCT120 BKN200=



000
FTUS45 KBYZ 011135
TAFMLS
TAF
KMLS 011135Z 0112/0212 30020G30KT P6SM BKN080
     FM011600 29025G35KT P6SM SCT080
     FM020200 28014KT P6SM SCT080=



000
FTUS45 KBYZ 011135
TAFLVM
TAF
KLVM 011135Z 0112/0212 29018G28KT P6SM BKN080
     FM011600 27022G32KT P6SM SCT100
     FM020200 27015KT P6SM BKN080=



000
FTUS45 KBYZ 011135
TAFLVM
TAF
KLVM 011135Z 0112/0212 29018G28KT P6SM BKN080
     FM011600 27022G32KT P6SM SCT100
     FM020200 27015KT P6SM BKN080=



000
FTUS45 KBYZ 011135
TAFBIL
TAF
KBIL 011135Z 0112/0212 28020G30KT P6SM BKN070
     FM011600 30026G40KT P6SM SCT150
     FM020200 29015KT P6SM SCT120 BKN200=



000
FTUS45 KBYZ 011135
TAFSHR
TAF
KSHR 011135Z 0112/0212 32015G25KT P6SM VCSH FEW030 BKN050
     FM011600 35024G33KT P6SM SCT080 BKN150
     FM020200 30012KT P6SM SCT080 BKN150=



000
FTUS45 KBYZ 011135
TAFMLS
TAF
KMLS 011135Z 0112/0212 30020G30KT P6SM BKN080
     FM011600 29025G35KT P6SM SCT080
     FM020200 28014KT P6SM SCT080=



000
FTUS45 KBYZ 010657 AAA
TAFBIL
TAF AMD
KBIL 010657Z 0107/0206 30020G30KT P6SM FEW070 BKN100
     FM011600 30026G40KT P6SM SCT150
     FM020200 29015KT P6SM SCT150=



000
FTUS45 KBYZ 010657 AAA
TAFBIL
TAF AMD
KBIL 010657Z 0107/0206 30020G30KT P6SM FEW070 BKN100
     FM011600 30026G40KT P6SM SCT150
     FM020200 29015KT P6SM SCT150=



000
FTUS45 KBYZ 010657 AAA
TAFBIL
TAF AMD
KBIL 010657Z 0107/0206 30020G30KT P6SM FEW070 BKN100
     FM011600 30026G40KT P6SM SCT150
     FM020200 29015KT P6SM SCT150=



000
FTUS45 KBYZ 010529
TAFLVM
TAF
KLVM 010529Z 0106/0206 31018G28KT P6SM VCSH SCT025 BKN040
      TEMPO 0106/0110 4SM -SHRASN BKN025
     FM011200 29025G35KT P6SM SCT050 BKN080
     FM011600 27022G32KT P6SM SCT080 BKN120
     FM020200 27015KT P6SM BKN080=



000
FTUS45 KBYZ 010529
TAFSHR
TAF
KSHR 010529Z 0106/0206 13006KT P6SM BKN200
     FM010800 31015G25KT P6SM VCSH FEW030 BKN060
     FM011600 35024G33KT P6SM SCT080 BKN150
     FM020200 30012KT P6SM SCT080 BKN150=



000
FTUS45 KBYZ 010529
TAFBIL
TAF
KBIL 010529Z 0106/0206 30015KT P6SM SCT150
     FM010800 30016G26KT P6SM FEW070 BKN100
     FM011600 30026G40KT P6SM SCT150
     FM020200 29015KT P6SM SCT150=



000
FTUS45 KBYZ 010529
TAFBIL
TAF
KBIL 010529Z 0106/0206 30015KT P6SM SCT150
     FM010800 30016G26KT P6SM FEW070 BKN100
     FM011600 30026G40KT P6SM SCT150
     FM020200 29015KT P6SM SCT150=



000
FTUS45 KBYZ 010529
TAFSHR
TAF
KSHR 010529Z 0106/0206 13006KT P6SM BKN200
     FM010800 31015G25KT P6SM VCSH FEW030 BKN060
     FM011600 35024G33KT P6SM SCT080 BKN150
     FM020200 30012KT P6SM SCT080 BKN150=



000
FTUS45 KBYZ 010529
TAFMLS
TAF
KMLS 010529Z 0106/0206 31020G30KT P6SM SCT080 BKN150
     FM011000 30020G30KT P6SM BKN080
     FM011600 29025G35KT P6SM SCT080
     FM020200 28014KT P6SM SCT080=



000
FTUS45 KBYZ 010529
TAFLVM
TAF
KLVM 010529Z 0106/0206 31018G28KT P6SM VCSH SCT025 BKN040
      TEMPO 0106/0110 4SM -SHRASN BKN025
     FM011200 29025G35KT P6SM SCT050 BKN080
     FM011600 27022G32KT P6SM SCT080 BKN120
     FM020200 27015KT P6SM BKN080=



000
FTUS45 KBYZ 312320
TAFBIL
TAF
KBIL 312320Z 0100/0124 24012KT P6SM VCSH SCT100 OVC150
     FM010300 31020G30KT P6SM FEW060 SCT100
     FM010700 30018G30KT P6SM VCSH SCT070 BKN100
     FM011500 30026G40KT P6SM SCT100=



000
FTUS45 KBYZ 312320
TAFSHR
TAF
KSHR 312320Z 0100/0124 13006KT P6SM BKN200
     FM010500 31025G32KT P6SM VCSH SCT100 BKN200
     FM011200 35018G26KT P6SM VCSH BKN080
     FM011400 35024G33KT P6SM BKN100=



000
FTUS45 KBYZ 312320
TAFLVM
TAF
KLVM 312320Z 0100/0124 24024G38KT P6SM VCSH SCT100 BKN150
     FM010200 30020G32KT P6SM VCSH SCT050 BKN080
     FM010600 30018G28KT 4SM -SHRASN SCT030 BKN050
     FM011200 29025G35KT P6SM VCSH BKN050
     FM011600 27022G32KT P6SM SCT100=



000
FTUS45 KBYZ 312320
TAFMLS
TAF
KMLS 312320Z 0100/0124 18010KT P6SM SCT120 BKN200
     FM010600 31020G35KT P6SM VCSH BKN080
     FM011000 30020G35KT P6SM BKN080
     FM011600 29025G35KT P6SM SCT080=



000
FTUS45 KBYZ 312320
TAFMLS
TAF
KMLS 312320Z 0100/0124 18010KT P6SM SCT120 BKN200
     FM010600 31020G35KT P6SM VCSH BKN080
     FM011000 30020G35KT P6SM BKN080
     FM011600 29025G35KT P6SM SCT080=



000
FTUS45 KBYZ 312320
TAFLVM
TAF
KLVM 312320Z 0100/0124 24024G38KT P6SM VCSH SCT100 BKN150
     FM010200 30020G32KT P6SM VCSH SCT050 BKN080
     FM010600 30018G28KT 4SM -SHRASN SCT030 BKN050
     FM011200 29025G35KT P6SM VCSH BKN050
     FM011600 27022G32KT P6SM SCT100=



000
FTUS45 KBYZ 312320
TAFBIL
TAF
KBIL 312320Z 0100/0124 24012KT P6SM VCSH SCT100 OVC150
     FM010300 31020G30KT P6SM FEW060 SCT100
     FM010700 30018G30KT P6SM VCSH SCT070 BKN100
     FM011500 30026G40KT P6SM SCT100=



000
FTUS45 KBYZ 312320
TAFSHR
TAF
KSHR 312320Z 0100/0124 13006KT P6SM BKN200
     FM010500 31025G32KT P6SM VCSH SCT100 BKN200
     FM011200 35018G26KT P6SM VCSH BKN080
     FM011400 35024G33KT P6SM BKN100=



000
FTUS45 KBYZ 312150 AAA
TAFMLS
TAF AMD
KMLS 312150Z 3122/0118 22008KT P6SM BKN200
     FM312300 24015G25KT P6SM SCT120 BKN200
     FM010600 31020G35KT P6SM VCSH BKN080 WS009/32042KT
     FM011000 31020G35KT P6SM BKN080
     FM011600 27025G35KT P6SM SCT080=



000
FTUS45 KBYZ 312150 AAA
TAFMLS
TAF AMD
KMLS 312150Z 3122/0118 22008KT P6SM BKN200
     FM312300 24015G25KT P6SM SCT120 BKN200
     FM010600 31020G35KT P6SM VCSH BKN080 WS009/32042KT
     FM011000 31020G35KT P6SM BKN080
     FM011600 27025G35KT P6SM SCT080=



000
FTUS45 KBYZ 312150 AAA
TAFMLS
TAF AMD
KMLS 312150Z 3122/0118 22008KT P6SM BKN200
     FM312300 24015G25KT P6SM SCT120 BKN200
     FM010600 31020G35KT P6SM VCSH BKN080 WS009/32042KT
     FM011000 31020G35KT P6SM BKN080
     FM011600 27025G35KT P6SM SCT080=



000
FTUS45 KBYZ 312150 AAA
TAFMLS
TAF AMD
KMLS 312150Z 3122/0118 22008KT P6SM BKN200
     FM312300 24015G25KT P6SM SCT120 BKN200
     FM010600 31020G35KT P6SM VCSH BKN080 WS009/32042KT
     FM011000 31020G35KT P6SM BKN080
     FM011600 27025G35KT P6SM SCT080=



000
FTUS45 KBYZ 312149 AAA
TAFBIL
TAF AMD
KBIL 312149Z 3122/0118 23012KT P6SM FEW120 BKN200
     FM010000 27020G30KT P6SM VCSH SCT120 BKN200
     FM010400 31018G29KT P6SM FEW060 SCT100
     FM010800 30017G30KT P6SM VCSH SCT070 BKN100
     FM011400 29022G32KT P6SM SCT100=



000
FTUS45 KBYZ 312149 AAA
TAFBIL
TAF AMD
KBIL 312149Z 3122/0118 23012KT P6SM FEW120 BKN200
     FM010000 27020G30KT P6SM VCSH SCT120 BKN200
     FM010400 31018G29KT P6SM FEW060 SCT100
     FM010800 30017G30KT P6SM VCSH SCT070 BKN100
     FM011400 29022G32KT P6SM SCT100=



000
FTUS45 KBYZ 312149 AAA
TAFBIL
TAF AMD
KBIL 312149Z 3122/0118 23012KT P6SM FEW120 BKN200
     FM010000 27020G30KT P6SM VCSH SCT120 BKN200
     FM010400 31018G29KT P6SM FEW060 SCT100
     FM010800 30017G30KT P6SM VCSH SCT070 BKN100
     FM011400 29022G32KT P6SM SCT100=



000
FTUS45 KBYZ 311722
TAFSHR
TAF
KSHR 311722Z 3118/0118 16005KT P6SM BKN250
     FM312200 24014G20KT P6SM FEW120 BKN250
     FM010500 31025G32KT P6SM VCSH SCT100 BKN200
     FM011200 35018G26KT P6SM VCSH BKN080
     FM011400 35022G30KT P6SM VCSH BKN100=



000
FTUS45 KBYZ 311722
TAFMLS
TAF
KMLS 311722Z 3118/0118 22008KT P6SM BKN200
     FM312000 24015G25KT P6SM SCT120 BKN200
     FM010600 31020G35KT P6SM VCSH BKN080 WS009/32042KT
     FM011000 31020G35KT P6SM BKN080
     FM011600 27025G35KT P6SM SCT080=



000
FTUS45 KBYZ 311722
TAFLVM
TAF
KLVM 311722Z 3118/0118 21021G30KT P6SM BKN120
     FM312200 24025G40KT P6SM VCTS SCT100CB BKN150
     FM010200 30018G25KT P6SM VCSH SCT050 BKN080
     FM010600 31018G27KT 4SM -SHRASN SCT030 BKN050
     FM011200 30025G35KT P6SM VCSH BKN050=



000
FTUS45 KBYZ 311722
TAFMLS
TAF
KMLS 311722Z 3118/0118 22008KT P6SM BKN200
     FM312000 24015G25KT P6SM SCT120 BKN200
     FM010600 31020G35KT P6SM VCSH BKN080 WS009/32042KT
     FM011000 31020G35KT P6SM BKN080
     FM011600 27025G35KT P6SM SCT080=



000
FTUS45 KBYZ 311722
TAFSHR
TAF
KSHR 311722Z 3118/0118 16005KT P6SM BKN250
     FM312200 24014G20KT P6SM FEW120 BKN250
     FM010500 31025G32KT P6SM VCSH SCT100 BKN200
     FM011200 35018G26KT P6SM VCSH BKN080
     FM011400 35022G30KT P6SM VCSH BKN100=



000
FTUS45 KBYZ 311722
TAFLVM
TAF
KLVM 311722Z 3118/0118 21021G30KT P6SM BKN120
     FM312200 24025G40KT P6SM VCTS SCT100CB BKN150
     FM010200 30018G25KT P6SM VCSH SCT050 BKN080
     FM010600 31018G27KT 4SM -SHRASN SCT030 BKN050
     FM011200 30025G35KT P6SM VCSH BKN050=



000
FTUS45 KBYZ 311722
TAFLVM
TAF
KLVM 311722Z 3118/0118 21021G30KT P6SM BKN120
     FM312200 24025G40KT P6SM VCTS SCT100CB BKN150
     FM010200 30018G25KT P6SM VCSH SCT050 BKN080
     FM010600 31018G27KT 4SM -SHRASN SCT030 BKN050
     FM011200 30025G35KT P6SM VCSH BKN050=



000
FTUS45 KBYZ 311722
TAFBIL
TAF
KBIL 311722Z 3118/0118 23012KT P6SM FEW120 BKN200
     FM312000 23017G25KT P6SM FEW120 BKN200
     FM010000 27020G30KT P6SM VCSH SCT120 BKN200
     FM010400 31018G29KT P6SM FEW060 SCT100
     FM010800 30017G30KT P6SM VCSH SCT070 BKN100
     FM011400 29022G32KT P6SM SCT100=



000
FTUS45 KBYZ 311722
TAFBIL
TAF
KBIL 311722Z 3118/0118 23012KT P6SM FEW120 BKN200
     FM312000 23017G25KT P6SM FEW120 BKN200
     FM010000 27020G30KT P6SM VCSH SCT120 BKN200
     FM010400 31018G29KT P6SM FEW060 SCT100
     FM010800 30017G30KT P6SM VCSH SCT070 BKN100
     FM011400 29022G32KT P6SM SCT100=



000
FTUS45 KBYZ 311722
TAFSHR
TAF
KSHR 311722Z 3118/0118 16005KT P6SM BKN250
     FM312200 24014G20KT P6SM FEW120 BKN250
     FM010500 31025G32KT P6SM VCSH SCT100 BKN200
     FM011200 35018G26KT P6SM VCSH BKN080
     FM011400 35022G30KT P6SM VCSH BKN100=



000
FTUS45 KBYZ 311722
TAFBIL
TAF
KBIL 311722Z 3118/0118 23012KT P6SM FEW120 BKN200
     FM312000 23017G25KT P6SM FEW120 BKN200
     FM010000 27020G30KT P6SM VCSH SCT120 BKN200
     FM010400 31018G29KT P6SM FEW060 SCT100
     FM010800 30017G30KT P6SM VCSH SCT070 BKN100
     FM011400 29022G32KT P6SM SCT100=



000
FTUS45 KBYZ 311722
TAFLVM
TAF
KLVM 311722Z 3118/0118 21021G30KT P6SM BKN120
     FM312200 24025G40KT P6SM VCTS SCT100CB BKN150
     FM010200 30018G25KT P6SM VCSH SCT050 BKN080
     FM010600 31018G27KT 4SM -SHRASN SCT030 BKN050
     FM011200 30025G35KT P6SM VCSH BKN050=



000
FTUS45 KBYZ 311722
TAFMLS
TAF
KMLS 311722Z 3118/0118 22008KT P6SM BKN200
     FM312000 24015G25KT P6SM SCT120 BKN200
     FM010600 31020G35KT P6SM VCSH BKN080 WS009/32042KT
     FM011000 31020G35KT P6SM BKN080
     FM011600 27025G35KT P6SM SCT080=



000
FTUS45 KBYZ 311722
TAFMLS
TAF
KMLS 311722Z 3118/0118 22008KT P6SM BKN200
     FM312000 24015G25KT P6SM SCT120 BKN200
     FM010600 31020G35KT P6SM VCSH BKN080 WS009/32042KT
     FM011000 31020G35KT P6SM BKN080
     FM011600 27025G35KT P6SM SCT080=



000
FTUS45 KBYZ 311722
TAFBIL
TAF
KBIL 311722Z 3118/0118 23012KT P6SM FEW120 BKN200
     FM312000 23017G25KT P6SM FEW120 BKN200
     FM010000 27020G30KT P6SM VCSH SCT120 BKN200
     FM010400 31018G29KT P6SM FEW060 SCT100
     FM010800 30017G30KT P6SM VCSH SCT070 BKN100
     FM011400 29022G32KT P6SM SCT100=



000
FTUS45 KBYZ 311722
TAFSHR
TAF
KSHR 311722Z 3118/0118 16005KT P6SM BKN250
     FM312200 24014G20KT P6SM FEW120 BKN250
     FM010500 31025G32KT P6SM VCSH SCT100 BKN200
     FM011200 35018G26KT P6SM VCSH BKN080
     FM011400 35022G30KT P6SM VCSH BKN100=



000
FTUS45 KBYZ 311503 AAA
TAFLVM
TAF AMD
KLVM 311503Z 3115/0112 21024G33KT P6SM BKN250
     FM311700 24025G40KT P6SM SCT120 BKN250
     FM312200 24025G40KT P6SM VCTS FEW080CB SCT100 BKN200
     FM010100 30015G25KT P6SM VCSH SCT050 BKN080=



000
FTUS45 KBYZ 311503 AAA
TAFLVM
TAF AMD
KLVM 311503Z 3115/0112 21024G33KT P6SM BKN250
     FM311700 24025G40KT P6SM SCT120 BKN250
     FM312200 24025G40KT P6SM VCTS FEW080CB SCT100 BKN200
     FM010100 30015G25KT P6SM VCSH SCT050 BKN080=



000
FTUS45 KBYZ 311120
TAFMLS
TAF
KMLS 311120Z 3112/0112 15008KT P6SM FEW120 BKN250
     FM311700 25012KT P6SM FEW120 BKN250
     FM312000 24015G25KT P6SM SCT120 BKN200
     FM010400 31018G28KT P6SM SCT080 BKN150=



000
FTUS45 KBYZ 311120
TAFSHR
TAF
KSHR 311120Z 3112/0112 20006KT P6SM FEW120 BKN250
     FM312200 24014G20KT P6SM FEW120 BKN250
     FM010400 31020G30KT P6SM SCT100 BKN200=



000
FTUS45 KBYZ 311120
TAFLVM
TAF
KLVM 311120Z 3112/0112 28015G25KT P6SM FEW100 BKN250
     FM311700 24025G40KT P6SM SCT120 BKN250
     FM312200 24025G40KT P6SM VCTS FEW080CB SCT100 BKN200
     FM010100 30015G25KT P6SM VCSH SCT050 BKN080=



000
FTUS45 KBYZ 311120
TAFMLS
TAF
KMLS 311120Z 3112/0112 15008KT P6SM FEW120 BKN250
     FM311700 25012KT P6SM FEW120 BKN250
     FM312000 24015G25KT P6SM SCT120 BKN200
     FM010400 31018G28KT P6SM SCT080 BKN150=



000
FTUS45 KBYZ 311120
TAFBIL
TAF
KBIL 311120Z 3112/0112 24014KT P6SM FEW120 BKN250
     FM311700 23015G22KT P6SM SCT150 BKN250
     FM312200 27020G32KT P6SM VCSH SCT090 BKN150
     FM010400 30020G30KT P6SM SCT120 BKN200=



000
FTUS45 KBYZ 311120
TAFLVM
TAF
KLVM 311120Z 3112/0112 28015G25KT P6SM FEW100 BKN250
     FM311700 24025G40KT P6SM SCT120 BKN250
     FM312200 24025G40KT P6SM VCTS FEW080CB SCT100 BKN200
     FM010100 30015G25KT P6SM VCSH SCT050 BKN080=



000
FTUS45 KBYZ 311120
TAFBIL
TAF
KBIL 311120Z 3112/0112 24014KT P6SM FEW120 BKN250
     FM311700 23015G22KT P6SM SCT150 BKN250
     FM312200 27020G32KT P6SM VCSH SCT090 BKN150
     FM010400 30020G30KT P6SM SCT120 BKN200=



000
FTUS45 KBYZ 311120
TAFSHR
TAF
KSHR 311120Z 3112/0112 20006KT P6SM FEW120 BKN250
     FM312200 24014G20KT P6SM FEW120 BKN250
     FM010400 31020G30KT P6SM SCT100 BKN200=



000
FTUS45 KBYZ 310520
TAFLVM
TAF
KLVM 310520Z 3106/0106 26012G22KT P6SM FEW100 BKN250
     FM311700 24025G40KT P6SM SCT120 BKN250
     FM312200 24025G40KT P6SM VCTS FEW080CB SCT100 BKN200
     FM010100 30015G25KT P6SM VCSH SCT050 BKN080=



000
FTUS45 KBYZ 310520
TAFBIL
TAF
KBIL 310520Z 3106/0106 24012KT P6SM SCT250
     FM311700 23015G22KT P6SM SCT150 BKN250
     FM312200 26020G32KT P6SM FEW090 BKN150
     FM010300 30020G30KT P6SM SCT120 BKN200=



000
FTUS45 KBYZ 310520
TAFMLS
TAF
KMLS 310520Z 3106/0106 16007KT P6SM FEW120 SCT250
     FM311700 25012KT P6SM FEW120 SCT250
     FM312000 24015G25KT P6SM SCT120 BKN200
     FM010400 31016G26KT P6SM SCT080 BKN150=



000
FTUS45 KBYZ 310520
TAFLVM
TAF
KLVM 310520Z 3106/0106 26012G22KT P6SM FEW100 BKN250
     FM311700 24025G40KT P6SM SCT120 BKN250
     FM312200 24025G40KT P6SM VCTS FEW080CB SCT100 BKN200
     FM010100 30015G25KT P6SM VCSH SCT050 BKN080=



000
FTUS45 KBYZ 310520
TAFSHR
TAF
KSHR 310520Z 3106/0106 20006KT P6SM FEW120
     FM312200 24014G20KT P6SM FEW120 BKN250
     FM010400 31020G30KT P6SM SCT100 BKN200=



000
FTUS45 KBYZ 310520
TAFSHR
TAF
KSHR 310520Z 3106/0106 20006KT P6SM FEW120
     FM312200 24014G20KT P6SM FEW120 BKN250
     FM010400 31020G30KT P6SM SCT100 BKN200=



000
FTUS45 KBYZ 310520
TAFMLS
TAF
KMLS 310520Z 3106/0106 16007KT P6SM FEW120 SCT250
     FM311700 25012KT P6SM FEW120 SCT250
     FM312000 24015G25KT P6SM SCT120 BKN200
     FM010400 31016G26KT P6SM SCT080 BKN150=



000
FTUS45 KBYZ 310520
TAFLVM
TAF
KLVM 310520Z 3106/0106 26012G22KT P6SM FEW100 BKN250
     FM311700 24025G40KT P6SM SCT120 BKN250
     FM312200 24025G40KT P6SM VCTS FEW080CB SCT100 BKN200
     FM010100 30015G25KT P6SM VCSH SCT050 BKN080=



000
FTUS45 KBYZ 310520
TAFBIL
TAF
KBIL 310520Z 3106/0106 24012KT P6SM SCT250
     FM311700 23015G22KT P6SM SCT150 BKN250
     FM312200 26020G32KT P6SM FEW090 BKN150
     FM010300 30020G30KT P6SM SCT120 BKN200=



000
FTUS45 KBYZ 310520
TAFLVM
TAF
KLVM 310520Z 3106/0106 26012G22KT P6SM FEW100 BKN250
     FM311700 24025G40KT P6SM SCT120 BKN250
     FM312200 24025G40KT P6SM VCTS FEW080CB SCT100 BKN200
     FM010100 30015G25KT P6SM VCSH SCT050 BKN080=



000
FTUS45 KBYZ 310520
TAFMLS
TAF
KMLS 310520Z 3106/0106 16007KT P6SM FEW120 SCT250
     FM311700 25012KT P6SM FEW120 SCT250
     FM312000 24015G25KT P6SM SCT120 BKN200
     FM010400 31016G26KT P6SM SCT080 BKN150=



000
FTUS45 KBYZ 310520
TAFBIL
TAF
KBIL 310520Z 3106/0106 24012KT P6SM SCT250
     FM311700 23015G22KT P6SM SCT150 BKN250
     FM312200 26020G32KT P6SM FEW090 BKN150
     FM010300 30020G30KT P6SM SCT120 BKN200=



000
FTUS45 KBYZ 310520
TAFBIL
TAF
KBIL 310520Z 3106/0106 24012KT P6SM SCT250
     FM311700 23015G22KT P6SM SCT150 BKN250
     FM312200 26020G32KT P6SM FEW090 BKN150
     FM010300 30020G30KT P6SM SCT120 BKN200=



000
FTUS45 KBYZ 310520
TAFSHR
TAF
KSHR 310520Z 3106/0106 20006KT P6SM FEW120
     FM312200 24014G20KT P6SM FEW120 BKN250
     FM010400 31020G30KT P6SM SCT100 BKN200=



000
FTUS45 KBYZ 310520
TAFSHR
TAF
KSHR 310520Z 3106/0106 20006KT P6SM FEW120
     FM312200 24014G20KT P6SM FEW120 BKN250
     FM010400 31020G30KT P6SM SCT100 BKN200=



000
FTUS45 KBYZ 310520
TAFMLS
TAF
KMLS 310520Z 3106/0106 16007KT P6SM FEW120 SCT250
     FM311700 25012KT P6SM FEW120 SCT250
     FM312000 24015G25KT P6SM SCT120 BKN200
     FM010400 31016G26KT P6SM SCT080 BKN150=



000
FTUS45 KBYZ 310255 AAA
TAFLVM
TAF AMD
KLVM 310255Z 3103/3124 24010KT P6SM FEW100 SCT250
     FM310900 24020G30KT P6SM FEW100 SCT250
     FM311800 24025G40KT P6SM SCT120 BKN250
     FM312200 24025G40KT P6SM VCTS FEW080CB SCT100 BKN200=



000
FTUS45 KBYZ 302354 CCA
TAFLVM
TAF COR
KLVM 302354Z 3100/3124 28015KT P6SM FEW100
     FM310900 24020G30KT P6SM FEW100 SCT250
     FM311800 24025G40KT P6SM SCT120 BKN250
     FM312200 24025G40KT P6SM VCTS FEW080CB SCT100 BKN200=



000
FTUS45 KBYZ 302354 CCA
TAFLVM
TAF COR
KLVM 302354Z 3100/3124 28015KT P6SM FEW100
     FM310900 24020G30KT P6SM FEW100 SCT250
     FM311800 24025G40KT P6SM SCT120 BKN250
     FM312200 24025G40KT P6SM VCTS FEW080CB SCT100 BKN200=



000
FTUS45 KBYZ 302354 CCA
TAFLVM
TAF COR
KLVM 302354Z 3100/3124 28015KT P6SM FEW100
     FM310900 24020G30KT P6SM FEW100 SCT250
     FM311800 24025G40KT P6SM SCT120 BKN250
     FM312200 24025G40KT P6SM VCTS FEW080CB SCT100 BKN200=



000
FTUS45 KBYZ 302354 CCA
TAFLVM
TAF COR
KLVM 302354Z 3100/3124 28015KT P6SM FEW100
     FM310900 24020G30KT P6SM FEW100 SCT250
     FM311800 24025G40KT P6SM SCT120 BKN250
     FM312200 24025G40KT P6SM VCTS FEW080CB SCT100 BKN200=



000
FTUS45 KBYZ 302353 CCA
TAFBIL
TAF COR
KBIL 302353Z 3100/3124 30010KT P6SM FEW100
     FM310400 24010KT P6SM FEW100 SCT250
     FM311700 22015G22KT P6SM SCT150 SCT250
     FM312200 24020G32KT P6SM FEW090 SCT150 BKN250=



000
FTUS45 KBYZ 302353 CCA
TAFBIL
TAF COR
KBIL 302353Z 3100/3124 30010KT P6SM FEW100
     FM310400 24010KT P6SM FEW100 SCT250
     FM311700 22015G22KT P6SM SCT150 SCT250
     FM312200 24020G32KT P6SM FEW090 SCT150 BKN250=



000
FTUS45 KBYZ 302353 CCA
TAFBIL
TAF COR
KBIL 302353Z 3100/3124 30010KT P6SM FEW100
     FM310400 24010KT P6SM FEW100 SCT250
     FM311700 22015G22KT P6SM SCT150 SCT250
     FM312200 24020G32KT P6SM FEW090 SCT150 BKN250=



000
FTUS45 KBYZ 302353 CCA
TAFBIL
TAF COR
KBIL 302353Z 3100/3124 30010KT P6SM FEW100
     FM310400 24010KT P6SM FEW100 SCT250
     FM311700 22015G22KT P6SM SCT150 SCT250
     FM312200 24020G32KT P6SM FEW090 SCT150 BKN250=



000
FTUS45 KBYZ 302320
TAFMLS
TAF
KMLS 302320Z 3100/3124 30012G20KT P6SM FEW080
     FM310200 30011KT P6SM FEW120 SCT250
     FM311700 25010G20KT P6SM FEW120 SCT250
     FM312300 25018G28KT P6SM SCT100 BKN200=



000
FTUS45 KBYZ 302320
TAFSHR
TAF
KSHR 302320Z 3100/3124 30008KT P6SM FEW080
     FM312200 24014G20KT P6SM FEW120 SCT200=



000
FTUS45 KBYZ 302320
TAFBIL
TAF
KBIL 302320Z 3100/3124 28015G22KT P6SM FEW100
     FM310200 24010KT P6SM FEW100 SCT250
     FM311700 22015G22KT P6SM SCT150 SCT250
     FM312200 24020G32KT P6SM FEW090 SCT150 BKN250=



000
FTUS45 KBYZ 302320
TAFBIL
TAF
KBIL 302320Z 3100/3124 28015G22KT P6SM FEW100
     FM310200 24010KT P6SM FEW100 SCT250
     FM311700 22015G22KT P6SM SCT150 SCT250
     FM312200 24020G32KT P6SM FEW090 SCT150 BKN250=



000
FTUS45 KBYZ 302320
TAFBIL
TAF
KBIL 302320Z 3100/3124 28015G22KT P6SM FEW100
     FM310200 24010KT P6SM FEW100 SCT250
     FM311700 22015G22KT P6SM SCT150 SCT250
     FM312200 24020G32KT P6SM FEW090 SCT150 BKN250=



000
FTUS45 KBYZ 302320
TAFLVM
TAF
KLVM 302320Z 3100/3124 25015KT P6SM FEW100
     FM310900 24020G30KT P6SM FEW100 SCT250
     FM311800 24025G40KT P6SM SCT120 BKN250
     FM312200 24025G40KT P6SM VCTS FEW080CB SCT100 BKN200=



000
FTUS45 KBYZ 302320
TAFSHR
TAF
KSHR 302320Z 3100/3124 30008KT P6SM FEW080
     FM312200 24014G20KT P6SM FEW120 SCT200=



000
FTUS45 KBYZ 302320
TAFLVM
TAF
KLVM 302320Z 3100/3124 25015KT P6SM FEW100
     FM310900 24020G30KT P6SM FEW100 SCT250
     FM311800 24025G40KT P6SM SCT120 BKN250
     FM312200 24025G40KT P6SM VCTS FEW080CB SCT100 BKN200=



000
FTUS45 KBYZ 302320
TAFLVM
TAF
KLVM 302320Z 3100/3124 25015KT P6SM FEW100
     FM310900 24020G30KT P6SM FEW100 SCT250
     FM311800 24025G40KT P6SM SCT120 BKN250
     FM312200 24025G40KT P6SM VCTS FEW080CB SCT100 BKN200=



000
FTUS45 KBYZ 302320
TAFMLS
TAF
KMLS 302320Z 3100/3124 30012G20KT P6SM FEW080
     FM310200 30011KT P6SM FEW120 SCT250
     FM311700 25010G20KT P6SM FEW120 SCT250
     FM312300 25018G28KT P6SM SCT100 BKN200=



000
FTUS45 KBYZ 302320
TAFLVM
TAF
KLVM 302320Z 3100/3124 25015KT P6SM FEW100
     FM310900 24020G30KT P6SM FEW100 SCT250
     FM311800 24025G40KT P6SM SCT120 BKN250
     FM312200 24025G40KT P6SM VCTS FEW080CB SCT100 BKN200=



000
FTUS45 KBYZ 302320
TAFBIL
TAF
KBIL 302320Z 3100/3124 28015G22KT P6SM FEW100
     FM310200 24010KT P6SM FEW100 SCT250
     FM311700 22015G22KT P6SM SCT150 SCT250
     FM312200 24020G32KT P6SM FEW090 SCT150 BKN250=



000
FTUS45 KBYZ 302320
TAFSHR
TAF
KSHR 302320Z 3100/3124 30008KT P6SM FEW080
     FM312200 24014G20KT P6SM FEW120 SCT200=



000
FTUS45 KBYZ 302320
TAFMLS
TAF
KMLS 302320Z 3100/3124 30012G20KT P6SM FEW080
     FM310200 30011KT P6SM FEW120 SCT250
     FM311700 25010G20KT P6SM FEW120 SCT250
     FM312300 25018G28KT P6SM SCT100 BKN200=



000
FTUS45 KBYZ 302320
TAFSHR
TAF
KSHR 302320Z 3100/3124 30008KT P6SM FEW080
     FM312200 24014G20KT P6SM FEW120 SCT200=



000
FTUS45 KBYZ 302320
TAFMLS
TAF
KMLS 302320Z 3100/3124 30012G20KT P6SM FEW080
     FM310200 30011KT P6SM FEW120 SCT250
     FM311700 25010G20KT P6SM FEW120 SCT250
     FM312300 25018G28KT P6SM SCT100 BKN200=



000
FTUS45 KBYZ 301731
TAFBIL
TAF
KBIL 301731Z 3018/3118 28012G19KT P6SM FEW100 SCT200
     FM310100 28010KT P6SM SCT200
     FM310300 24011KT P6SM SCT200=



000
FTUS45 KBYZ 301731
TAFLVM
TAF
KLVM 301731Z 3018/3118 26016G24KT P6SM FEW100 SCT200
     FM310100 24015KT P6SM SCT200
     FM311600 23020G30KT P6SM SCT200=



000
FTUS45 KBYZ 301731
TAFSHR
TAF
KSHR 301731Z 3018/3118 32014G21KT P6SM FEW100 SCT200
     FM302100 32011KT P6SM FEW100 SCT200
     FM310100 VRB03KT P6SM SCT200=



000
FTUS45 KBYZ 301731
TAFMLS
TAF
KMLS 301731Z 3018/3118 31014G21KT P6SM SCT200
     FM302200 30013KT P6SM SCT200
     FM310300 15007KT P6SM SCT200=



000
FTUS45 KBYZ 301731
TAFMLS
TAF
KMLS 301731Z 3018/3118 31014G21KT P6SM SCT200
     FM302200 30013KT P6SM SCT200
     FM310300 15007KT P6SM SCT200=



000
FTUS45 KBYZ 301731
TAFLVM
TAF
KLVM 301731Z 3018/3118 26016G24KT P6SM FEW100 SCT200
     FM310100 24015KT P6SM SCT200
     FM311600 23020G30KT P6SM SCT200=



000
FTUS45 KBYZ 301731
TAFMLS
TAF
KMLS 301731Z 3018/3118 31014G21KT P6SM SCT200
     FM302200 30013KT P6SM SCT200
     FM310300 15007KT P6SM SCT200=



000
FTUS45 KBYZ 301731
TAFSHR
TAF
KSHR 301731Z 3018/3118 32014G21KT P6SM FEW100 SCT200
     FM302100 32011KT P6SM FEW100 SCT200
     FM310100 VRB03KT P6SM SCT200=



000
FTUS45 KBYZ 301731
TAFBIL
TAF
KBIL 301731Z 3018/3118 28012G19KT P6SM FEW100 SCT200
     FM310100 28010KT P6SM SCT200
     FM310300 24011KT P6SM SCT200=



000
FTUS45 KBYZ 301731
TAFSHR
TAF
KSHR 301731Z 3018/3118 32014G21KT P6SM FEW100 SCT200
     FM302100 32011KT P6SM FEW100 SCT200
     FM310100 VRB03KT P6SM SCT200=



000
FTUS45 KBYZ 301731
TAFLVM
TAF
KLVM 301731Z 3018/3118 26016G24KT P6SM FEW100 SCT200
     FM310100 24015KT P6SM SCT200
     FM311600 23020G30KT P6SM SCT200=



000
FTUS45 KBYZ 301731
TAFBIL
TAF
KBIL 301731Z 3018/3118 28012G19KT P6SM FEW100 SCT200
     FM310100 28010KT P6SM SCT200
     FM310300 24011KT P6SM SCT200=



000
FTUS45 KBYZ 301731
TAFMLS
TAF
KMLS 301731Z 3018/3118 31014G21KT P6SM SCT200
     FM302200 30013KT P6SM SCT200
     FM310300 15007KT P6SM SCT200=



000
FTUS45 KBYZ 301731
TAFLVM
TAF
KLVM 301731Z 3018/3118 26016G24KT P6SM FEW100 SCT200
     FM310100 24015KT P6SM SCT200
     FM311600 23020G30KT P6SM SCT200=



000
FTUS45 KBYZ 301731
TAFBIL
TAF
KBIL 301731Z 3018/3118 28012G19KT P6SM FEW100 SCT200
     FM310100 28010KT P6SM SCT200
     FM310300 24011KT P6SM SCT200=



000
FTUS45 KBYZ 301731
TAFSHR
TAF
KSHR 301731Z 3018/3118 32014G21KT P6SM FEW100 SCT200
     FM302100 32011KT P6SM FEW100 SCT200
     FM310100 VRB03KT P6SM SCT200=



000
FTUS45 KBYZ 301534 AAA
TAFLVM
TAF AMD
KLVM 301534Z 3016/3112 26011KT P6SM FEW080 BKN120
     FM301800 26015G25KT P6SM SCT120 BKN200
     FM310300 24015KT P6SM SCT200=



000
FTUS45 KBYZ 301534 AAA
TAFLVM
TAF AMD
KLVM 301534Z 3016/3112 26011KT P6SM FEW080 BKN120
     FM301800 26015G25KT P6SM SCT120 BKN200
     FM310300 24015KT P6SM SCT200=



000
FTUS45 KBYZ 301533 AAA
TAFBIL
TAF AMD
KBIL 301533Z 3016/3112 25010KT P6SM FEW100 BKN150
     FM301800 27012G22KT P6SM SCT120 BKN200
     FM310100 24010KT P6SM SCT200=



000
FTUS45 KBYZ 301533 AAA
TAFBIL
TAF AMD
KBIL 301533Z 3016/3112 25010KT P6SM FEW100 BKN150
     FM301800 27012G22KT P6SM SCT120 BKN200
     FM310100 24010KT P6SM SCT200=



000
FTUS45 KBYZ 301533 AAA
TAFBIL
TAF AMD
KBIL 301533Z 3016/3112 25010KT P6SM FEW100 BKN150
     FM301800 27012G22KT P6SM SCT120 BKN200
     FM310100 24010KT P6SM SCT200=



000
FTUS45 KBYZ 301533 AAA
TAFBIL
TAF AMD
KBIL 301533Z 3016/3112 25010KT P6SM FEW100 BKN150
     FM301800 27012G22KT P6SM SCT120 BKN200
     FM310100 24010KT P6SM SCT200=



000
FTUS45 KBYZ 301120
TAFMLS
TAF
KMLS 301120Z 3012/3112 30010KT P6SM SCT120 BKN200
     FM310200 14006KT P6SM SCT200=



000
FTUS45 KBYZ 301120
TAFLVM
TAF
KLVM 301120Z 3012/3112 25015KT P6SM FEW080 BKN120
     FM301700 26015G25KT P6SM SCT120 BKN200
     FM310300 24015KT P6SM SCT200=



000
FTUS45 KBYZ 301120
TAFBIL
TAF
KBIL 301120Z 3012/3112 29014KT P6SM FEW100 BKN150
     FM301800 27012G22KT P6SM SCT120 BKN200
     FM310100 24010KT P6SM SCT200=



000
FTUS45 KBYZ 301120
TAFSHR
TAF
KSHR 301120Z 3012/3112 VRB04KT P6SM SCT200
     FM301600 31012G20KT P6SM SCT120 BKN200
     FM310100 VRB04KT P6SM SCT200=



000
FTUS45 KBYZ 301120
TAFMLS
TAF
KMLS 301120Z 3012/3112 30010KT P6SM SCT120 BKN200
     FM310200 14006KT P6SM SCT200=



000
FTUS45 KBYZ 301120
TAFLVM
TAF
KLVM 301120Z 3012/3112 25015KT P6SM FEW080 BKN120
     FM301700 26015G25KT P6SM SCT120 BKN200
     FM310300 24015KT P6SM SCT200=



000
FTUS45 KBYZ 301120
TAFLVM
TAF
KLVM 301120Z 3012/3112 25015KT P6SM FEW080 BKN120
     FM301700 26015G25KT P6SM SCT120 BKN200
     FM310300 24015KT P6SM SCT200=



000
FTUS45 KBYZ 301120
TAFBIL
TAF
KBIL 301120Z 3012/3112 29014KT P6SM FEW100 BKN150
     FM301800 27012G22KT P6SM SCT120 BKN200
     FM310100 24010KT P6SM SCT200=



000
FTUS45 KBYZ 301120
TAFBIL
TAF
KBIL 301120Z 3012/3112 29014KT P6SM FEW100 BKN150
     FM301800 27012G22KT P6SM SCT120 BKN200
     FM310100 24010KT P6SM SCT200=



000
FTUS45 KBYZ 301120
TAFSHR
TAF
KSHR 301120Z 3012/3112 VRB04KT P6SM SCT200
     FM301600 31012G20KT P6SM SCT120 BKN200
     FM310100 VRB04KT P6SM SCT200=



000
FTUS45 KBYZ 301120
TAFLVM
TAF
KLVM 301120Z 3012/3112 25015KT P6SM FEW080 BKN120
     FM301700 26015G25KT P6SM SCT120 BKN200
     FM310300 24015KT P6SM SCT200=



000
FTUS45 KBYZ 301120
TAFMLS
TAF
KMLS 301120Z 3012/3112 30010KT P6SM SCT120 BKN200
     FM310200 14006KT P6SM SCT200=



000
FTUS45 KBYZ 301120
TAFSHR
TAF
KSHR 301120Z 3012/3112 VRB04KT P6SM SCT200
     FM301600 31012G20KT P6SM SCT120 BKN200
     FM310100 VRB04KT P6SM SCT200=



000
FTUS45 KBYZ 301120
TAFSHR
TAF
KSHR 301120Z 3012/3112 VRB04KT P6SM SCT200
     FM301600 31012G20KT P6SM SCT120 BKN200
     FM310100 VRB04KT P6SM SCT200=



000
FTUS45 KBYZ 301120
TAFMLS
TAF
KMLS 301120Z 3012/3112 30010KT P6SM SCT120 BKN200
     FM310200 14006KT P6SM SCT200=



000
FTUS45 KBYZ 301120
TAFBIL
TAF
KBIL 301120Z 3012/3112 29014KT P6SM FEW100 BKN150
     FM301800 27012G22KT P6SM SCT120 BKN200
     FM310100 24010KT P6SM SCT200=



000
FTUS45 KBYZ 300520
TAFLVM
TAF
KLVM 300520Z 3006/3106 25015KT P6SM FEW120 BKN200
     FM301700 26015G25KT P6SM SCT120 BKN200
     FM310300 24015KT P6SM SCT200=



000
FTUS45 KBYZ 300520
TAFBIL
TAF
KBIL 300520Z 3006/3106 30010KT P6SM FEW120 BKN200
     FM301800 27012G22KT P6SM SCT120 BKN200
     FM310100 24010KT P6SM SCT200=



000
FTUS45 KBYZ 300520
TAFLVM
TAF
KLVM 300520Z 3006/3106 25015KT P6SM FEW120 BKN200
     FM301700 26015G25KT P6SM SCT120 BKN200
     FM310300 24015KT P6SM SCT200=



000
FTUS45 KBYZ 300520
TAFSHR
TAF
KSHR 300520Z 3006/3106 VRB04KT P6SM SCT200
     FM301600 31012G20KT P6SM SCT120 BKN200
     FM310100 VRB04KT P6SM SCT200=



000
FTUS45 KBYZ 300520
TAFSHR
TAF
KSHR 300520Z 3006/3106 VRB04KT P6SM SCT200
     FM301600 31012G20KT P6SM SCT120 BKN200
     FM310100 VRB04KT P6SM SCT200=



000
FTUS45 KBYZ 300520
TAFSHR
TAF
KSHR 300520Z 3006/3106 VRB04KT P6SM SCT200
     FM301600 31012G20KT P6SM SCT120 BKN200
     FM310100 VRB04KT P6SM SCT200=



000
FTUS45 KBYZ 300520
TAFMLS
TAF
KMLS 300520Z 3006/3106 25006KT P6SM FEW120 BKN200
     FM300900 30014KT P6SM SCT120 BKN200
     FM310200 14006KT P6SM SCT200=



000
FTUS45 KBYZ 300520
TAFBIL
TAF
KBIL 300520Z 3006/3106 30010KT P6SM FEW120 BKN200
     FM301800 27012G22KT P6SM SCT120 BKN200
     FM310100 24010KT P6SM SCT200=



000
FTUS45 KBYZ 300520
TAFMLS
TAF
KMLS 300520Z 3006/3106 25006KT P6SM FEW120 BKN200
     FM300900 30014KT P6SM SCT120 BKN200
     FM310200 14006KT P6SM SCT200=



000
FTUS45 KBYZ 300520
TAFMLS
TAF
KMLS 300520Z 3006/3106 25006KT P6SM FEW120 BKN200
     FM300900 30014KT P6SM SCT120 BKN200
     FM310200 14006KT P6SM SCT200=



000
FTUS45 KBYZ 300520
TAFBIL
TAF
KBIL 300520Z 3006/3106 30010KT P6SM FEW120 BKN200
     FM301800 27012G22KT P6SM SCT120 BKN200
     FM310100 24010KT P6SM SCT200=



000
FTUS45 KBYZ 300520
TAFSHR
TAF
KSHR 300520Z 3006/3106 VRB04KT P6SM SCT200
     FM301600 31012G20KT P6SM SCT120 BKN200
     FM310100 VRB04KT P6SM SCT200=



000
FTUS45 KBYZ 300520
TAFBIL
TAF
KBIL 300520Z 3006/3106 30010KT P6SM FEW120 BKN200
     FM301800 27012G22KT P6SM SCT120 BKN200
     FM310100 24010KT P6SM SCT200=



000
FTUS45 KBYZ 300520
TAFLVM
TAF
KLVM 300520Z 3006/3106 25015KT P6SM FEW120 BKN200
     FM301700 26015G25KT P6SM SCT120 BKN200
     FM310300 24015KT P6SM SCT200=



000
FTUS45 KBYZ 300520
TAFLVM
TAF
KLVM 300520Z 3006/3106 25015KT P6SM FEW120 BKN200
     FM301700 26015G25KT P6SM SCT120 BKN200
     FM310300 24015KT P6SM SCT200=



    US Dept of Commerce
    National Oceanic and Atmospheric Administration
    National Weather Service
    1325 East West Highway
    Silver Spring, MD 20910
    Page Author: NWS Internet Services Team
Disclaimer
Information Quality
Credits
Glossary
Privacy Policy
Freedom of Information Act (FOIA)
About Us
Career Opportunities